Time;durP1;ratioP1;P1;durP2;ratioP2;P2;SDS_P1;SDS_P2;PMS_P1;PMS_P2;Temp;Humidity;BMP_temperature;BMP_pressure;BME280_temperature;BME280_humidity;BME280_pressure;Samples;Min_cycle;Max_cycle;Signal;HPM_P1;HPM_P2
2023/12/20 00:02:19;;;;;;;28.50;16.40;;;5.70;99.90;;;;;;5032869;28;20258;-81
2023/12/20 00:05:07;;;;;;;27.23;15.60;;;5.70;99.90;;;;;;5032127;28;20242;-81
2023/12/20 00:07:54;;;;;;;29.13;16.10;;;5.70;99.90;;;;;;5033930;28;20652;-82
2023/12/20 00:10:43;;;;;;;26.67;16.50;;;5.70;99.90;;;;;;5032043;28;20227;-81
2023/12/20 00:13:30;;;;;;;27.40;15.73;;;5.70;99.90;;;;;;5032362;28;20304;-82
2023/12/20 00:16:17;;;;;;;26.23;15.60;;;5.70;99.90;;;;;;5032895;28;20284;-81
2023/12/20 00:19:05;;;;;;;26.67;15.53;;;5.70;99.90;;;;;;5031740;28;20238;-81
2023/12/20 00:21:52;;;;;;;29.07;15.57;;;5.70;99.90;;;;;;5032384;28;20207;-82
2023/12/20 00:24:40;;;;;;;26.00;15.73;;;5.80;99.90;;;;;;5031491;28;20205;-81
2023/12/20 00:27:27;;;;;;;24.23;15.07;;;5.80;99.90;;;;;;5032932;28;20733;-81
2023/12/20 00:30:14;;;;;;;22.87;14.37;;;5.80;99.90;;;;;;5032217;28;20721;-81
2023/12/20 00:33:02;;;;;;;23.90;14.53;;;5.80;99.90;;;;;;5032246;28;20555;-81
2023/12/20 00:35:50;;;;;;;26.87;15.20;;;5.70;99.90;;;;;;5033055;28;21154;-82
2023/12/20 00:38:37;;;;;;;23.03;14.47;;;5.80;99.90;;;;;;5034133;28;20192;-82
2023/12/20 00:41:24;;;;;;;24.47;14.10;;;5.80;99.90;;;;;;5033122;28;20348;-81
2023/12/20 00:44:12;;;;;;;22.03;13.50;;;5.80;99.90;;;;;;5031817;28;20281;-82
2023/12/20 00:46:59;;;;;;;20.53;12.90;;;5.80;99.90;;;;;;5032869;28;20263;-82
2023/12/20 00:49:46;;;;;;;21.30;13.07;;;5.80;99.90;;;;;;5033077;28;20210;-82
2023/12/20 00:52:33;;;;;;;22.23;13.70;;;5.80;99.90;;;;;;5032398;28;20210;-83
2023/12/20 00:55:21;;;;;;;19.83;12.90;;;5.80;99.90;;;;;;5031197;28;20326;-82
2023/12/20 00:58:08;;;;;;;19.60;12.23;;;5.80;99.90;;;;;;5033315;28;20187;-82
2023/12/20 01:00:55;;;;;;;20.50;12.07;;;5.80;99.90;;;;;;5032101;28;20191;-82
2023/12/20 01:03:43;;;;;;;19.00;11.30;;;5.80;99.90;;;;;;5033816;28;20199;-81
2023/12/20 01:06:30;;;;;;;21.97;12.47;;;5.80;99.90;;;;;;5032228;28;20612;-82
2023/12/20 01:09:18;;;;;;;21.07;12.37;;;5.80;99.90;;;;;;5032178;28;20733;-82
2023/12/20 01:12:05;;;;;;;20.70;11.87;;;5.80;99.90;;;;;;5031845;28;20222;-82
2023/12/20 01:14:53;;;;;;;19.30;12.03;;;5.80;99.90;;;;;;5032544;28;20226;-83
2023/12/20 01:17:40;;;;;;;20.20;12.27;;;5.80;99.90;;;;;;5032113;28;20684;-82
2023/12/20 01:20:28;;;;;;;21.87;12.73;;;5.80;99.90;;;;;;5032375;28;20285;-82
2023/12/20 01:23:15;;;;;;;19.53;12.30;;;5.80;99.90;;;;;;5032006;28;20206;-81
2023/12/20 01:26:04;;;;;;;18.07;11.93;;;5.80;99.90;;;;;;5031176;28;20724;-82
2023/12/20 01:28:51;;;;;;;18.03;11.63;;;5.80;99.90;;;;;;5032656;28;20205;-82
2023/12/20 01:31:39;;;;;;;18.50;11.33;;;5.80;99.90;;;;;;5032309;28;20281;-82
2023/12/20 01:34:26;;;;;;;20.33;11.57;;;5.80;99.90;;;;;;5031981;28;20215;-82
2023/12/20 01:37:14;;;;;;;19.17;12.10;;;5.80;99.90;;;;;;5031038;28;20353;-82
2023/12/20 01:40:02;;;;;;;19.17;11.87;;;5.80;99.90;;;;;;5030882;28;20278;-83
2023/12/20 01:43:06;;;;;;;17.93;11.13;;;5.80;99.90;;;;;;5030076;28;20199;-81
2023/12/20 01:45:57;;;;;;;20.83;12.53;;;5.80;99.90;;;;;;5031387;28;20599;-81
2023/12/20 01:48:44;;;;;;;15.63;10.73;;;5.80;99.90;;;;;;5031434;28;20575;-82
2023/12/20 01:51:33;;;;;;;20.23;11.83;;;5.80;99.90;;;;;;5032168;28;20209;-82
2023/12/20 01:54:20;;;;;;;17.43;11.00;;;5.80;99.90;;;;;;5032153;28;20708;-81
2023/12/20 01:57:08;;;;;;;19.97;10.80;;;5.80;99.90;;;;;;5031933;28;20226;-81
2023/12/20 01:59:56;;;;;;;16.83;10.87;;;5.90;99.90;;;;;;5030919;28;20240;-81
2023/12/20 02:02:45;;;;;;;16.00;10.27;;;5.80;99.90;;;;;;5035118;28;20195;-82
2023/12/20 02:05:35;;;;;;;16.73;10.53;;;5.80;99.90;;;;;;5035791;28;20240;-82
2023/12/20 02:08:22;;;;;;;15.33;10.00;;;5.80;99.90;;;;;;5035429;28;20581;-81
2023/12/20 02:11:10;;;;;;;15.83;10.57;;;5.80;99.90;;;;;;5034623;28;20322;-81
2023/12/20 02:13:57;;;;;;;15.77;9.87;;;5.80;99.90;;;;;;5035536;28;20310;-82
2023/12/20 02:16:45;;;;;;;17.20;10.60;;;5.80;99.90;;;;;;5036048;28;20203;-81
2023/12/20 02:19:32;;;;;;;15.23;10.50;;;5.80;99.90;;;;;;5035579;28;20230;-81
2023/12/20 02:22:20;;;;;;;17.90;10.20;;;5.80;99.90;;;;;;5035368;28;20207;-81
2023/12/20 02:25:07;;;;;;;17.03;10.10;;;5.80;99.90;;;;;;5035298;28;20196;-82
2023/12/20 02:27:55;;;;;;;19.03;11.00;;;5.90;99.90;;;;;;5035495;28;20676;-82
2023/12/20 02:30:42;;;;;;;16.20;10.00;;;5.80;99.90;;;;;;5035785;28;20188;-82
2023/12/20 02:33:30;;;;;;;18.33;11.30;;;5.80;99.90;;;;;;5034604;28;20238;-82
2023/12/20 02:36:17;;;;;;;16.17;10.10;;;5.80;99.90;;;;;;5034084;28;20195;-82
2023/12/20 02:39:04;;;;;;;15.17;10.03;;;5.80;99.90;;;;;;5036720;28;20205;-82
2023/12/20 02:41:52;;;;;;;15.77;9.80;;;5.90;99.90;;;;;;5035121;28;20211;-82
2023/12/20 02:44:39;;;;;;;16.40;9.70;;;5.90;99.90;;;;;;5035363;28;20278;-82
2023/12/20 02:47:26;;;;;;;15.30;9.40;;;5.80;99.90;;;;;;5034294;28;20678;-82
2023/12/20 02:50:14;;;;;;;14.30;8.37;;;5.80;99.90;;;;;;5035625;28;20192;-82
2023/12/20 02:53:01;;;;;;;12.77;8.30;;;5.90;99.90;;;;;;5034885;28;20671;-82
2023/12/20 02:55:48;;;;;;;12.97;8.43;;;5.80;99.90;;;;;;5034245;28;20215;-82
2023/12/20 02:58:35;;;;;;;13.17;7.83;;;5.80;99.90;;;;;;5035151;28;20199;-82
2023/12/20 03:01:23;;;;;;;10.90;7.90;;;5.80;99.90;;;;;;5035514;28;20573;-82
2023/12/20 03:04:11;;;;;;;13.90;8.47;;;5.80;99.90;;;;;;5034647;28;20198;-81
2023/12/20 03:06:58;;;;;;;12.27;8.50;;;5.80;99.90;;;;;;5035401;28;20350;-81
2023/12/20 03:09:45;;;;;;;15.00;8.50;;;5.80;99.90;;;;;;5033497;28;20191;-82
2023/12/20 03:12:52;;;;;;;14.40;9.40;;;5.80;99.90;;;;;;5032653;28;20199;-81
2023/12/20 03:15:40;;;;;;;12.87;8.63;;;5.80;99.90;;;;;;5033504;28;20257;-81
2023/12/20 03:18:28;;;;;;;15.33;8.60;;;5.80;99.90;;;;;;5035456;28;20195;-81
2023/12/20 03:21:16;;;;;;;12.07;7.80;;;5.80;99.90;;;;;;5034676;28;20255;-81
2023/12/20 03:24:03;;;;;;;9.47;6.77;;;5.80;99.90;;;;;;5034629;28;20352;-81
2023/12/20 03:26:51;;;;;;;9.97;6.57;;;5.80;99.90;;;;;;5033805;28;20680;-82
2023/12/20 03:29:38;;;;;;;9.03;6.33;;;5.80;99.90;;;;;;5034377;28;20199;-81
2023/12/20 03:32:25;;;;;;;10.10;6.60;;;5.80;99.90;;;;;;5034319;28;20211;-82
2023/12/20 03:35:13;;;;;;;10.17;6.30;;;5.80;99.90;;;;;;5034647;28;20228;-82
2023/12/20 03:38:00;;;;;;;10.47;6.80;;;5.80;99.90;;;;;;5031928;28;20635;-81
2023/12/20 03:40:47;;;;;;;13.20;6.90;;;5.80;99.90;;;;;;5035195;28;20341;-81
2023/12/20 03:43:35;;;;;;;10.10;6.77;;;5.80;99.90;;;;;;5034274;28;20270;-81
2023/12/20 03:46:22;;;;;;;12.73;7.07;;;5.70;99.90;;;;;;5033056;28;20229;-81
2023/12/20 03:49:10;;;;;;;9.63;6.70;;;5.80;99.90;;;;;;5033942;28;20218;-81
2023/12/20 03:51:57;;;;;;;11.03;6.90;;;5.80;99.90;;;;;;5033225;28;20204;-82
2023/12/20 03:54:44;;;;;;;9.90;6.53;;;5.80;99.90;;;;;;5033564;28;20223;-82
2023/12/20 03:57:31;;;;;;;11.23;7.23;;;5.80;99.90;;;;;;5032047;28;20718;-81
2023/12/20 04:00:19;;;;;;;9.17;6.27;;;5.80;99.90;;;;;;5033549;28;20206;-81
2023/12/20 04:03:07;;;;;;;9.20;6.10;;;5.80;99.90;;;;;;5034003;28;20196;-81
2023/12/20 04:05:54;;;;;;;7.77;5.57;;;5.80;99.90;;;;;;5034087;28;20269;-81
2023/12/20 04:08:42;;;;;;;10.17;6.00;;;5.80;99.90;;;;;;5033640;28;20725;-81
2023/12/20 04:11:29;;;;;;;9.97;6.47;;;5.70;99.90;;;;;;5033505;28;20586;-82
2023/12/20 04:14:16;;;;;;;9.80;6.03;;;5.80;99.90;;;;;;5032772;28;20357;-81
2023/12/20 04:17:04;;;;;;;10.50;6.47;;;5.80;99.90;;;;;;5033286;28;20202;-82
2023/12/20 04:19:51;;;;;;;8.80;6.10;;;5.70;99.90;;;;;;5033186;28;20280;-82
2023/12/20 04:22:39;;;;;;;8.60;5.83;;;5.80;99.90;;;;;;5032453;28;20196;-83
2023/12/20 04:25:26;;;;;;;10.50;6.30;;;5.80;99.90;;;;;;5032039;28;20228;-82
2023/12/20 04:28:13;;;;;;;9.47;6.03;;;5.80;99.90;;;;;;5033827;28;20595;-82
2023/12/20 04:31:01;;;;;;;12.90;6.93;;;5.80;99.90;;;;;;5032941;28;20207;-81
2023/12/20 04:33:49;;;;;;;10.67;6.77;;;5.80;99.90;;;;;;5032892;28;20227;-81
2023/12/20 04:36:36;;;;;;;10.97;7.07;;;5.80;99.90;;;;;;5033535;28;20192;-81
2023/12/20 04:39:23;;;;;;;10.03;6.93;;;5.80;99.90;;;;;;5031745;28;20191;-81
2023/12/20 04:42:10;;;;;;;9.93;6.93;;;5.80;99.90;;;;;;5032142;28;20560;-81
2023/12/20 04:44:58;;;;;;;9.03;6.60;;;5.80;99.90;;;;;;5032895;28;20198;-81
2023/12/20 04:47:46;;;;;;;11.30;7.00;;;5.80;99.90;;;;;;5032758;28;20284;-81
2023/12/20 04:50:34;;;;;;;10.97;7.00;;;5.80;99.90;;;;;;5033490;28;20195;-81
2023/12/20 04:53:23;;;;;;;12.07;7.27;;;5.80;99.90;;;;;;5033365;28;20644;-81
2023/12/20 04:56:10;;;;;;;12.00;7.27;;;5.80;99.90;;;;;;5032673;28;20219;-80
2023/12/20 04:58:57;;;;;;;10.97;6.93;;;5.80;99.90;;;;;;5033722;28;20225;-81
2023/12/20 05:01:44;;;;;;;10.23;6.60;;;5.90;99.90;;;;;;5033415;28;20210;-81
2023/12/20 05:04:32;;;;;;;11.63;7.50;;;5.90;99.90;;;;;;5031854;28;20366;-82
2023/12/20 05:07:20;;;;;;;11.23;7.03;;;5.80;99.90;;;;;;5035067;28;20206;-82
2023/12/20 05:10:08;;;;;;;11.67;7.37;;;5.80;99.90;;;;;;5031663;28;20199;-82
2023/12/20 05:12:56;;;;;;;12.53;7.50;;;5.80;99.90;;;;;;5032841;28;20200;-82
2023/12/20 05:15:43;;;;;;;11.90;7.77;;;5.90;99.90;;;;;;5031453;28;20219;-81
2023/12/20 05:18:30;;;;;;;13.40;7.90;;;5.80;99.90;;;;;;5033051;28;20217;-81
2023/12/20 05:21:18;;;;;;;12.53;8.07;;;5.80;99.90;;;;;;5032427;28;20241;-82
2023/12/20 05:24:05;;;;;;;13.30;8.37;;;5.80;99.90;;;;;;5031451;28;20197;-82
2023/12/20 05:26:53;;;;;;;14.23;8.40;;;5.90;99.90;;;;;;5033253;28;20222;-81
2023/12/20 05:29:40;;;;;;;13.17;8.23;;;5.80;99.90;;;;;;5031859;28;20191;-82
2023/12/20 05:32:27;;;;;;;13.87;8.67;;;5.80;99.90;;;;;;5033124;28;20725;-82
2023/12/20 05:35:15;;;;;;;13.57;8.60;;;5.80;99.90;;;;;;5032251;28;20267;-81
2023/12/20 05:38:02;;;;;;;13.23;8.90;;;5.90;99.90;;;;;;5031657;28;20678;-82
2023/12/20 05:40:50;;;;;;;16.17;9.03;;;5.90;99.90;;;;;;5032048;28;20678;-81
2023/12/20 05:43:37;;;;;;;15.57;8.60;;;5.80;99.90;;;;;;5031571;28;20199;-82
2023/12/20 05:46:25;;;;;;;14.43;9.13;;;5.80;99.90;;;;;;5032591;28;20227;-82
2023/12/20 05:49:13;;;;;;;12.90;8.13;;;5.80;99.90;;;;;;5032988;28;20219;-82
2023/12/20 05:52:01;;;;;;;12.77;8.60;;;5.80;99.90;;;;;;5030958;28;20864;-81
2023/12/20 05:54:48;;;;;;;13.47;8.27;;;5.80;99.90;;;;;;5032495;28;20327;-81
2023/12/20 05:57:35;;;;;;;14.83;8.27;;;5.80;99.90;;;;;;5032122;28;20261;-81
2023/12/20 06:00:23;;;;;;;12.90;8.63;;;5.80;99.90;;;;;;5033026;28;20245;-81
2023/12/20 06:03:10;;;;;;;14.30;7.80;;;5.90;99.90;;;;;;5032929;28;20281;-82
2023/12/20 06:05:57;;;;;;;13.90;7.73;;;5.80;99.90;;;;;;5032820;28;20296;-81
2023/12/20 06:08:59;;;;;;;13.47;8.27;;;5.80;99.90;;;;;;5031992;28;20217;-81
2023/12/20 06:11:46;;;;;;;15.43;8.13;;;5.80;99.90;;;;;;5032125;28;20725;-81
2023/12/20 06:14:34;;;;;;;12.70;7.73;;;5.70;99.90;;;;;;5032477;28;20226;-82
2023/12/20 06:17:22;;;;;;;14.50;8.27;;;5.70;99.90;;;;;;5031361;28;20253;-82
2023/12/20 06:20:10;;;;;;;15.67;8.27;;;5.70;99.90;;;;;;5031990;28;20205;-82
2023/12/20 06:22:57;;;;;;;15.27;8.40;;;5.70;99.90;;;;;;5031538;28;20740;-81
2023/12/20 06:25:44;;;;;;;16.33;8.20;;;5.80;99.90;;;;;;5031743;28;20605;-81
2023/12/20 06:28:32;;;;;;;15.33;8.90;;;5.80;99.90;;;;;;5030948;28;20257;-81
2023/12/20 06:31:19;;;;;;;12.90;8.23;;;5.80;99.90;;;;;;5032065;28;20196;-81
2023/12/20 06:34:06;;;;;;;13.17;8.20;;;5.80;99.90;;;;;;5031966;28;20270;-82
2023/12/20 06:36:54;;;;;;;14.13;8.43;;;5.70;99.90;;;;;;5031797;28;20277;-81
2023/12/20 06:39:42;;;;;;;14.07;8.73;;;5.70;99.90;;;;;;5031339;28;20204;-81
2023/12/20 06:42:29;;;;;;;15.97;9.00;;;5.70;99.90;;;;;;5032165;28;20579;-81
2023/12/20 06:45:22;;;;;;;16.03;9.03;;;5.70;99.90;;;;;;5031923;28;20734;-81
2023/12/20 06:48:11;;;;;;;17.50;9.60;;;5.70;99.90;;;;;;5033914;28;20219;-82
2023/12/20 06:51:02;;;;;;;16.33;9.40;;;5.70;99.90;;;;;;5035067;28;20201;-82
2023/12/20 06:53:49;;;;;;;13.77;9.13;;;5.70;99.90;;;;;;5034123;28;20283;-82
2023/12/20 06:56:36;;;;;;;15.27;9.47;;;5.70;99.90;;;;;;5035219;28;20226;-82
2023/12/20 06:59:24;;;;;;;16.20;9.53;;;5.70;99.90;;;;;;5035499;28;20195;-81
2023/12/20 07:02:11;;;;;;;16.27;9.47;;;5.70;99.90;;;;;;5034817;28;20624;-81
2023/12/20 07:05:01;;;;;;;18.33;9.97;;;5.80;99.90;;;;;;5033784;28;20718;-81
2023/12/20 07:07:49;;;;;;;16.87;9.57;;;5.80;99.90;;;;;;5034755;28;20200;-81
2023/12/20 07:10:37;;;;;;;16.43;9.47;;;5.80;99.90;;;;;;5034891;28;20281;-81
2023/12/20 07:13:24;;;;;;;15.47;9.43;;;5.80;99.90;;;;;;5033035;28;20217;-81
2023/12/20 07:16:13;;;;;;;15.53;9.53;;;5.80;99.90;;;;;;5034534;28;20224;-80
2023/12/20 07:19:00;;;;;;;15.47;9.63;;;5.80;99.90;;;;;;5034304;28;20195;-81
2023/12/20 07:21:47;;;;;;;15.67;9.13;;;5.80;99.90;;;;;;5034202;28;20191;-81
2023/12/20 07:24:35;;;;;;;16.53;10.23;;;5.80;99.90;;;;;;5033823;28;20231;-81
2023/12/20 07:27:22;;;;;;;16.87;9.90;;;5.80;99.90;;;;;;5033795;28;20625;-81
2023/12/20 07:30:10;;;;;;;16.33;9.57;;;5.80;99.90;;;;;;5033840;28;20608;-81
2023/12/20 07:32:57;;;;;;;19.43;10.30;;;5.70;99.90;;;;;;5034376;28;20196;-80
2023/12/20 07:35:45;;;;;;;17.30;10.53;;;5.70;99.90;;;;;;5033957;28;20219;-80
2023/12/20 07:38:32;;;;;;;17.57;9.77;;;5.80;99.90;;;;;;5033109;28;20199;-80
2023/12/20 07:41:21;;;;;;;17.07;9.63;;;5.80;99.90;;;;;;5034046;28;20211;-79
2023/12/20 07:44:09;;;;;;;17.23;10.10;;;5.80;99.90;;;;;;5034590;28;20614;-81
2023/12/20 07:46:57;;;;;;;17.20;9.77;;;5.80;99.90;;;;;;5034074;28;20206;-80
2023/12/20 07:49:45;;;;;;;16.63;10.27;;;5.80;99.90;;;;;;5033461;28;20202;-80
2023/12/20 07:52:32;;;;;;;16.10;9.93;;;5.80;99.90;;;;;;5033628;28;20574;-81
2023/12/20 07:55:21;;;;;;;15.63;9.57;;;5.80;99.90;;;;;;5034458;28;20218;-77
2023/12/20 07:58:08;;;;;;;14.10;9.07;;;5.80;99.90;;;;;;5033277;28;20257;-77
2023/12/20 08:00:56;;;;;;;17.27;9.60;;;5.70;99.90;;;;;;5033253;28;20208;-77
2023/12/20 08:03:44;;;;;;;15.10;9.10;;;5.70;99.90;;;;;;5034946;28;20675;-77
2023/12/20 08:06:31;;;;;;;12.87;7.87;;;5.70;99.90;;;;;;5032792;28;20216;-77
2023/12/20 08:09:19;;;;;;;13.90;8.07;;;5.80;99.90;;;;;;5033745;28;20583;-78
2023/12/20 08:12:07;;;;;;;14.27;8.60;;;5.70;99.90;;;;;;5033420;28;20234;-77
2023/12/20 08:14:54;;;;;;;14.60;8.87;;;5.70;99.90;;;;;;5033290;28;20219;-77
2023/12/20 08:17:42;;;;;;;14.40;9.07;;;5.80;99.90;;;;;;5033156;28;20277;-77
2023/12/20 08:20:31;;;;;;;12.57;8.23;;;5.70;99.90;;;;;;5032986;28;20204;-77
2023/12/20 08:23:27;;;;;;;14.63;8.50;;;5.80;99.90;;;;;;5033650;28;20289;-77
2023/12/20 08:26:23;;;;;;;15.00;8.40;;;5.80;99.90;;;;;;5032404;28;20219;-77
2023/12/20 08:29:12;;;;;;;15.13;8.07;;;5.80;99.90;;;;;;5032363;28;20663;-77
2023/12/20 08:32:00;;;;;;;13.50;8.03;;;5.70;99.90;;;;;;5032304;28;20192;-77
2023/12/20 08:34:47;;;;;;;14.20;8.27;;;5.70;99.90;;;;;;5032850;28;20223;-78
2023/12/20 08:37:35;;;;;;;15.53;7.93;;;5.70;99.90;;;;;;5032927;28;20197;-78
2023/12/20 08:40:23;;;;;;;13.00;7.37;;;5.80;99.90;;;;;;5033275;28;20270;-77
2023/12/20 08:43:10;;;;;;;12.97;8.13;;;5.70;99.90;;;;;;5032912;28;20199;-78
2023/12/20 08:45:58;;;;;;;13.07;7.60;;;5.70;99.90;;;;;;5032505;28;20649;-77
2023/12/20 08:48:45;;;;;;;14.00;7.80;;;5.70;99.90;;;;;;5032978;28;20199;-76
2023/12/20 08:51:33;;;;;;;13.40;7.47;;;5.70;99.90;;;;;;5032169;28;20201;-76
2023/12/20 08:54:21;;;;;;;15.03;7.70;;;5.70;99.90;;;;;;5031197;28;20197;-77
2023/12/20 08:57:08;;;;;;;14.73;7.50;;;5.60;99.90;;;;;;5032432;28;20207;-77
2023/12/20 08:59:56;;;;;;;15.13;8.90;;;5.70;99.90;;;;;;5032892;28;20415;-78
2023/12/20 09:02:43;;;;;;;14.10;7.77;;;5.70;99.90;;;;;;5033649;28;20192;-77
2023/12/20 09:05:31;;;;;;;18.47;8.17;;;5.70;99.90;;;;;;5018332;28;20305;-76
2023/12/20 09:08:18;;;;;;;12.50;7.30;;;5.70;99.90;;;;;;5033290;28;20317;-78
2023/12/20 09:11:06;;;;;;;13.70;7.93;;;5.70;99.90;;;;;;5032549;28;20238;-78
2023/12/20 09:13:54;;;;;;;10.53;6.83;;;5.70;99.90;;;;;;5032354;28;20196;-78
2023/12/20 09:16:41;;;;;;;12.70;7.97;;;5.70;99.90;;;;;;5031895;28;20263;-77
2023/12/20 09:19:29;;;;;;;11.77;7.23;;;5.70;99.90;;;;;;5035849;28;20249;-76
2023/12/20 09:22:17;;;;;;;13.97;7.87;;;5.70;99.90;;;;;;5031146;28;20282;-77
2023/12/20 09:25:05;;;;;;;14.67;8.13;;;5.70;99.90;;;;;;5032328;28;20206;-81
2023/12/20 09:27:52;;;;;;;12.93;7.87;;;5.70;99.90;;;;;;5033954;28;20573;-80
2023/12/20 09:30:40;;;;;;;12.93;8.07;;;5.70;99.90;;;;;;5030880;28;20204;-80
2023/12/20 09:33:28;;;;;;;14.07;8.13;;;5.70;99.90;;;;;;5032592;28;20206;-80
2023/12/20 09:36:15;;;;;;;12.63;7.37;;;5.70;99.90;;;;;;5031911;28;20222;-81
2023/12/20 09:39:03;;;;;;;14.37;7.60;;;5.70;99.90;;;;;;5031655;28;20195;-80
2023/12/20 09:41:59;;;;;;;12.50;7.53;;;5.70;99.90;;;;;;5030927;28;20269;-79
2023/12/20 09:44:47;;;;;;;12.57;7.80;;;5.70;99.90;;;;;;5031998;28;20286;-78
2023/12/20 09:47:35;;;;;;;12.27;7.37;;;5.70;99.90;;;;;;5031967;28;20242;-76
2023/12/20 09:50:23;;;;;;;13.40;7.93;;;5.70;99.90;;;;;;5029762;28;20566;-76
2023/12/20 09:53:16;;;;;;;13.20;8.13;;;5.80;99.90;;;;;;5031579;28;20195;-81
2023/12/20 09:56:05;;;;;;;14.20;8.10;;;5.70;99.90;;;;;;5031867;28;20704;-80
2023/12/20 09:58:54;;;;;;;13.40;7.67;;;5.70;99.90;;;;;;5032081;28;20269;-80
2023/12/20 10:01:42;;;;;;;15.27;8.30;;;5.70;99.90;;;;;;5032097;28;20720;-81
2023/12/20 10:04:32;;;;;;;14.70;8.20;;;5.70;99.90;;;;;;5032381;28;21244;-81
2023/12/20 10:07:19;;;;;;;15.10;8.27;;;5.70;99.90;;;;;;5032578;28;20260;-81
2023/12/20 10:10:08;;;;;;;15.40;8.50;;;5.80;99.90;;;;;;5031076;28;20203;-81
2023/12/20 10:13:13;;;;;;;14.63;7.70;;;5.80;99.90;;;;;;5032202;28;20209;-80
2023/12/20 10:16:01;;;;;;;12.03;7.00;;;5.70;99.90;;;;;;5031829;28;20211;-80
2023/12/20 10:18:48;;;;;;;11.67;7.10;;;5.70;99.90;;;;;;5030707;28;20282;-78
2023/12/20 10:21:36;;;;;;;13.93;7.97;;;5.80;99.90;;;;;;5031607;28;20253;-80
2023/12/20 10:24:23;;;;;;;13.07;7.43;;;5.80;99.90;;;;;;5036703;28;20283;-80
2023/12/20 10:27:12;;;;;;;16.27;7.70;;;5.80;99.90;;;;;;5035346;28;20216;-79
2023/12/20 10:30:00;;;;;;;13.00;7.10;;;5.70;99.90;;;;;;5036228;28;20202;-79
2023/12/20 10:32:47;;;;;;;11.20;7.33;;;5.70;99.90;;;;;;5036035;28;20221;-78
2023/12/20 10:35:36;;;;;;;15.50;7.57;;;5.70;99.90;;;;;;5034240;28;20230;-76
2023/12/20 10:38:23;;;;;;;16.23;7.60;;;5.70;99.90;;;;;;5034058;28;20270;-77
2023/12/20 10:41:16;;;;;;;13.30;7.60;;;5.70;99.90;;;;;;5035007;28;20580;-79
2023/12/20 10:44:07;;;;;;;12.63;7.60;;;5.70;99.90;;;;;;5035062;28;20189;-82
2023/12/20 10:46:58;;;;;;;12.13;7.53;;;5.80;99.90;;;;;;5034521;28;20282;-79
2023/12/20 10:49:46;;;;;;;11.20;7.20;;;5.80;99.90;;;;;;5034992;28;20199;-79
2023/12/20 10:52:35;;;;;;;12.23;7.40;;;5.80;99.90;;;;;;5034944;28;20207;-80
2023/12/20 10:55:24;;;;;;;12.37;7.17;;;5.80;99.90;;;;;;5034802;28;20222;-79
2023/12/20 10:58:16;;;;;;;13.03;6.93;;;5.70;99.90;;;;;;5036368;28;20279;-79
2023/12/20 11:01:05;;;;;;;13.77;6.80;;;5.70;99.90;;;;;;5034267;28;20203;-78
2023/12/20 11:03:54;;;;;;;11.33;7.07;;;5.80;99.90;;;;;;5035216;28;20293;-79
2023/12/20 11:06:54;;;;;;;10.97;6.63;;;5.70;99.90;;;;;;5020624;28;20214;-79
2023/12/20 11:09:49;;;;;;;12.20;6.57;;;5.70;99.90;;;;;;5035913;28;20704;-80
2023/12/20 11:12:43;;;;;;;10.97;6.03;;;5.70;99.90;;;;;;5034549;28;20216;-79
2023/12/20 11:15:31;;;;;;;10.00;6.27;;;5.70;99.90;;;;;;5033811;28;20581;-79
2023/12/20 11:18:18;;;;;;;12.63;6.60;;;5.70;99.90;;;;;;5034457;28;20206;-79
2023/12/20 11:21:05;;;;;;;11.87;6.73;;;5.70;99.90;;;;;;5034212;28;20195;-79
2023/12/20 11:23:53;;;;;;;13.20;6.50;;;5.80;99.90;;;;;;5033992;28;20196;-79
2023/12/20 11:26:47;;;;;;;9.50;5.83;;;5.70;99.90;;;;;;5032694;28;20222;-79
2023/12/20 11:29:36;;;;;;;12.50;6.00;;;5.70;99.90;;;;;;5033456;28;20570;-80
2023/12/20 11:32:27;;;;;;;10.97;6.33;;;5.80;99.90;;;;;;5034537;28;20274;-80
2023/12/20 11:35:15;;;;;;;11.40;6.57;;;5.80;99.90;;;;;;5031705;28;20209;-79
2023/12/20 11:38:02;;;;;;;9.83;5.90;;;5.80;99.90;;;;;;5033881;28;20197;-80
2023/12/20 11:40:50;;;;;;;9.90;5.97;;;5.80;99.90;;;;;;5035459;28;20300;-78
2023/12/20 11:43:39;;;;;;;11.53;6.17;;;5.80;99.90;;;;;;5034040;28;20365;-81
2023/12/20 11:46:26;;;;;;;11.30;6.47;;;5.80;99.90;;;;;;5034467;28;20578;-80
2023/12/20 11:49:14;;;;;;;9.07;6.20;;;5.80;99.90;;;;;;5034094;28;20570;-80
2023/12/20 11:52:01;;;;;;;10.23;6.60;;;5.80;99.90;;;;;;5033348;28;20188;-81
2023/12/20 11:54:48;;;;;;;10.50;6.53;;;5.70;99.90;;;;;;5033543;28;20266;-81
2023/12/20 11:57:36;;;;;;;13.73;6.43;;;5.70;99.90;;;;;;5033842;28;20297;-80
2023/12/20 12:00:25;;;;;;;10.03;6.53;;;5.80;99.90;;;;;;5032801;28;20698;-80
2023/12/20 12:03:15;;;;;;;11.93;6.57;;;5.70;99.90;;;;;;5033092;28;20207;-80
2023/12/20 12:06:04;;;;;;;9.93;6.60;;;5.70;99.90;;;;;;5033689;28;20257;-81
2023/12/20 12:08:52;;;;;;;12.13;6.33;;;5.70;99.90;;;;;;5032555;28;20208;-81
2023/12/20 12:11:40;;;;;;;14.70;7.07;;;5.70;99.90;;;;;;5035422;28;20709;-80
2023/12/20 12:14:27;;;;;;;13.57;6.20;;;5.70;99.90;;;;;;5034068;28;20195;-80
2023/12/20 12:17:15;;;;;;;9.27;6.20;;;5.70;99.90;;;;;;5032820;28;20267;-80
2023/12/20 12:20:06;;;;;;;9.00;5.47;;;5.70;99.90;;;;;;5033470;28;20230;-81
2023/12/20 12:23:04;;;;;;;7.40;5.33;;;5.70;99.90;;;;;;5032406;28;20211;-81
2023/12/20 12:25:52;;;;;;;9.57;5.03;;;5.60;99.90;;;;;;5033294;28;20228;-80
2023/12/20 12:28:43;;;;;;;8.30;5.37;;;5.60;99.90;;;;;;5033829;28;20325;-79
2023/12/20 12:31:30;;;;;;;9.60;5.77;;;5.60;99.90;;;;;;5033704;28;20191;-79
2023/12/20 12:34:18;;;;;;;8.80;5.60;;;5.60;99.90;;;;;;5033131;28;20200;-80
2023/12/20 12:37:06;;;;;;;9.27;5.53;;;5.50;99.90;;;;;;5032861;28;20657;-79
2023/12/20 12:39:54;;;;;;;9.40;4.90;;;5.60;99.90;;;;;;5032568;28;20222;-79
2023/12/20 12:42:44;;;;;;;9.57;5.63;;;5.60;99.90;;;;;;5032888;28;20343;-79
2023/12/20 12:45:32;;;;;;;11.20;5.77;;;5.50;99.90;;;;;;5033834;28;20558;-79
2023/12/20 12:48:20;;;;;;;8.77;5.90;;;5.50;99.90;;;;;;5031923;28;20203;-79
2023/12/20 12:51:12;;;;;;;9.13;5.77;;;5.50;99.90;;;;;;5031955;28;20199;-79
2023/12/20 12:54:00;;;;;;;14.53;6.03;;;5.40;99.90;;;;;;5031734;28;20284;-80
2023/12/20 12:56:47;;;;;;;12.07;6.97;;;5.40;99.90;;;;;;5031639;28;20227;-79
2023/12/20 12:59:34;;;;;;;9.67;6.37;;;5.40;99.90;;;;;;5032757;28;20199;-79
2023/12/20 13:02:27;;;;;;;12.63;6.70;;;5.40;99.90;;;;;;5032759;28;20210;-78
2023/12/20 13:05:14;;;;;;;14.60;7.50;;;5.40;99.90;;;;;;5031598;28;20307;-79
2023/12/20 13:08:02;;;;;;;12.13;7.57;;;5.40;99.90;;;;;;5032068;28;20511;-79
2023/12/20 13:10:50;;;;;;;11.97;6.83;;;5.40;99.90;;;;;;5032002;28;20225;-79
2023/12/20 13:13:37;;;;;;;10.57;6.30;;;5.40;99.90;;;;;;5032556;28;20192;-79
2023/12/20 13:16:25;;;;;;;12.23;7.20;;;5.30;99.90;;;;;;5032227;28;20234;-79
2023/12/20 13:19:12;;;;;;;11.40;7.00;;;5.40;99.90;;;;;;5031733;28;20195;-79
2023/12/20 13:22:00;;;;;;;11.47;6.87;;;5.30;99.90;;;;;;5031235;28;20196;-79
2023/12/20 13:24:48;;;;;;;13.57;7.17;;;5.30;99.90;;;;;;5031990;28;20274;-77
2023/12/20 13:27:36;;;;;;;10.83;6.60;;;5.30;99.90;;;;;;5032201;28;20230;-77
2023/12/20 13:30:23;;;;;;;10.93;6.90;;;5.30;99.90;;;;;;5032283;28;20202;-77
2023/12/20 13:33:11;;;;;;;14.70;7.53;;;5.30;99.90;;;;;;5032137;28;20678;-77
2023/12/20 13:35:59;;;;;;;11.83;7.20;;;5.30;99.90;;;;;;5031034;28;20597;-77
2023/12/20 13:38:48;;;;;;;10.27;6.77;;;5.30;99.90;;;;;;5032229;28;20334;-77
2023/12/20 13:41:36;;;;;;;11.00;6.90;;;5.40;99.90;;;;;;5032445;28;20218;-77
2023/12/20 13:44:23;;;;;;;12.90;7.30;;;5.40;99.90;;;;;;5032020;28;20203;-77
2023/12/20 13:47:10;;;;;;;13.57;7.23;;;5.40;99.90;;;;;;5032664;28;20300;-77
2023/12/20 13:49:58;;;;;;;11.40;6.70;;;5.40;99.90;;;;;;5031433;28;20198;-77
2023/12/20 13:52:47;;;;;;;12.33;6.83;;;5.50;99.90;;;;;;5031031;28;20194;-78
2023/12/20 13:55:34;;;;;;;12.90;7.00;;;5.40;99.90;;;;;;5031854;28;20318;-77
2023/12/20 13:58:22;;;;;;;12.77;7.37;;;5.40;99.90;;;;;;5035875;28;20196;-77
2023/12/20 14:01:10;;;;;;;11.53;6.67;;;5.40;99.90;;;;;;5035503;28;20195;-77
2023/12/20 14:03:59;;;;;;;11.03;6.83;;;5.40;99.90;;;;;;5035814;28;20612;-77
2023/12/20 14:06:47;;;;;;;10.50;6.77;;;5.30;99.90;;;;;;4997158;28;20196;-78
2023/12/20 14:09:34;;;;;;;13.97;7.53;;;5.30;99.90;;;;;;4996462;28;20201;-77
2023/12/20 14:12:22;;;;;;;11.57;7.10;;;5.30;99.90;;;;;;4996194;28;20236;-77
2023/12/20 14:15:12;;;;;;;11.40;7.13;;;5.40;99.90;;;;;;4997331;28;20210;-78
2023/12/20 14:18:00;;;;;;;10.20;6.87;;;5.30;99.90;;;;;;4995142;28;20224;-78
2023/12/20 14:20:48;;;;;;;12.10;6.53;;;5.30;99.90;;;;;;4996992;28;20193;-77
2023/12/20 14:23:35;;;;;;;9.47;6.63;;;5.30;99.90;;;;;;4995592;28;20193;-78
2023/12/20 14:26:23;;;;;;;13.17;6.93;;;5.20;99.90;;;;;;4995485;28;20754;-78
2023/12/20 14:29:10;;;;;;;11.73;7.00;;;5.20;99.90;;;;;;4996786;28;20251;-78
2023/12/20 14:31:57;;;;;;;9.87;6.33;;;5.20;99.90;;;;;;4995960;28;20675;-78
2023/12/20 14:34:45;;;;;;;11.00;6.63;;;5.30;99.90;;;;;;4995475;28;20200;-76